sensor_id;sensor_type;location;lat;lon;timestamp;pressure;altitude;pressure_sealevel;temperature;humidity
28456;BME280;15682;56.742;38.866;2023-02-08T00:00:10;101940.0;;;-6.2;86.9
28456;BME280;15682;56.742;38.866;2023-02-08T00:02:08;101940.0;;;-6.1;87.6
28456;BME280;15682;56.742;38.866;2023-02-08T00:04:08;101940.0;;;-6.1;87.6
28456;BME280;15682;56.742;38.866;2023-02-08T00:06:08;101930.0;;;-6.1;87.6
28456;BME280;15682;56.742;38.866;2023-02-08T00:08:07;101930.0;;;-6.0;87.6
28456;BME280;15682;56.742;38.866;2023-02-08T00:10:07;101930.0;;;-6.0;86.8
28456;BME280;15682;56.742;38.866;2023-02-08T00:12:07;101930.0;;;-6.1;86.4
28456;BME280;15682;56.742;38.866;2023-02-08T00:14:07;101930.0;;;-6.1;86.9
28456;BME280;15682;56.742;38.866;2023-02-08T00:16:07;101930.0;;;-6.1;86.9
28456;BME280;15682;56.742;38.866;2023-02-08T00:18:06;101930.0;;;-5.8;89.2
28456;BME280;15682;56.742;38.866;2023-02-08T00:20:07;101930.0;;;-5.9;87.6
28456;BME280;15682;56.742;38.866;2023-02-08T00:22:06;101930.0;;;-6.1;87.1
28456;BME280;15682;56.742;38.866;2023-02-08T00:24:06;101930.0;;;-6.1;87.1
28456;BME280;15682;56.742;38.866;2023-02-08T00:26:06;101930.0;;;-6.1;87.1
28456;BME280;15682;56.742;38.866;2023-02-08T00:28:05;101930.0;;;-6.1;87.8
28456;BME280;15682;56.742;38.866;2023-02-08T00:30:06;101930.0;;;-6.1;87.7
28456;BME280;15682;56.742;38.866;2023-02-08T00:32:05;101920.0;;;-6.0;87.1
28456;BME280;15682;56.742;38.866;2023-02-08T00:34:04;101920.0;;;-6.0;87.7
28456;BME280;15682;56.742;38.866;2023-02-08T00:36:06;101920.0;;;-6.0;87.0
28456;BME280;15682;56.742;38.866;2023-02-08T00:38:04;101920.0;;;-6.0;87.0
28456;BME280;15682;56.742;38.866;2023-02-08T00:40:05;101920.0;;;-6.1;87.0
28456;BME280;15682;56.742;38.866;2023-02-08T00:42:04;101920.0;;;-6.1;87.6
28456;BME280;15682;56.742;38.866;2023-02-08T00:44:04;101910.0;;;-6.1;87.0
28456;BME280;15682;56.742;38.866;2023-02-08T00:46:03;101910.0;;;-6.1;87.0
28456;BME280;15682;56.742;38.866;2023-02-08T00:48:03;101910.0;;;-6.0;87.1
28456;BME280;15682;56.742;38.866;2023-02-08T00:50:04;101910.0;;;-6.0;87.1
28456;BME280;15682;56.742;38.866;2023-02-08T00:52:02;101910.0;;;-6.1;87.7
28456;BME280;15682;56.742;38.866;2023-02-08T00:54:02;101910.0;;;-6.1;87.1
28456;BME280;15682;56.742;38.866;2023-02-08T00:56:03;101910.0;;;-6.0;87.1
28456;BME280;15682;56.742;38.866;2023-02-08T00:58:02;101910.0;;;-6.0;87.1
28456;BME280;15682;56.742;38.866;2023-02-08T01:00:02;101910.0;;;-6.0;87.1
28456;BME280;15682;56.742;38.866;2023-02-08T01:02:01;101910.0;;;-6.1;87.0
28456;BME280;15682;56.742;38.866;2023-02-08T01:04:01;101910.0;;;-6.1;87.0
28456;BME280;15682;56.742;38.866;2023-02-08T01:06:01;101910.0;;;-6.1;87.0
28456;BME280;15682;56.742;38.866;2023-02-08T01:08:00;101910.0;;;-6.0;85.9
28456;BME280;15682;56.742;38.866;2023-02-08T01:10:00;101910.0;;;-6.0;86.8
28456;BME280;15682;56.742;38.866;2023-02-08T01:12:00;101910.0;;;-6.0;87.0
28456;BME280;15682;56.742;38.866;2023-02-08T01:14:00;101910.0;;;-6.2;87.0
28456;BME280;15682;56.742;38.866;2023-02-08T01:16:09;101910.0;;;-6.2;87.7
28456;BME280;15682;56.742;38.866;2023-02-08T01:17:59;101900.0;;;-6.0;86.5
28456;BME280;15682;56.742;38.866;2023-02-08T01:19:59;101900.0;;;-6.0;87.2
28456;BME280;15682;56.742;38.866;2023-02-08T01:21:59;101890.0;;;-6.0;87.3
28456;BME280;15682;56.742;38.866;2023-02-08T01:23:59;101880.0;;;-6.0;87.3
28456;BME280;15682;56.742;38.866;2023-02-08T01:25:58;101880.0;;;-6.0;87.0
28456;BME280;15682;56.742;38.866;2023-02-08T01:27:58;101870.0;;;-6.0;87.0
28456;BME280;15682;56.742;38.866;2023-02-08T01:29:58;101870.0;;;-6.0;87.0
28456;BME280;15682;56.742;38.866;2023-02-08T01:31:58;101870.0;;;-6.0;86.7
28456;BME280;15682;56.742;38.866;2023-02-08T01:33:58;101870.0;;;-6.0;87.0
28456;BME280;15682;56.742;38.866;2023-02-08T01:35:57;101870.0;;;-6.1;87.0
28456;BME280;15682;56.742;38.866;2023-02-08T01:37:57;101870.0;;;-6.0;87.6
28456;BME280;15682;56.742;38.866;2023-02-08T01:39:57;101870.0;;;-6.0;87.6
28456;BME280;15682;56.742;38.866;2023-02-08T01:41:56;101870.0;;;-6.0;86.9
28456;BME280;15682;56.742;38.866;2023-02-08T01:44:04;101870.0;;;-6.0;86.9
28456;BME280;15682;56.742;38.866;2023-02-08T01:45:56;101870.0;;;-6.0;87.4
28456;BME280;15682;56.742;38.866;2023-02-08T01:48:01;101860.0;;;-6.0;87.4
28456;BME280;15682;56.742;38.866;2023-02-08T01:49:55;101850.0;;;-6.0;87.4
28456;BME280;15682;56.742;38.866;2023-02-08T01:51:58;101850.0;;;-5.9;87.6
28456;BME280;15682;56.742;38.866;2023-02-08T01:53:56;101850.0;;;-6.0;87.6
28456;BME280;15682;56.742;38.866;2023-02-08T01:55:57;101850.0;;;-6.0;87.6
28456;BME280;15682;56.742;38.866;2023-02-08T01:57:57;101850.0;;;-6.0;87.6
28456;BME280;15682;56.742;38.866;2023-02-08T01:59:58;101850.0;;;-5.9;87.5
28456;BME280;15682;56.742;38.866;2023-02-08T02:01:55;101850.0;;;-5.8;86.5
28456;BME280;15682;56.742;38.866;2023-02-08T02:03:54;101850.0;;;-5.8;87.7
28456;BME280;15682;56.742;38.866;2023-02-08T02:05:56;101850.0;;;-5.8;87.2
28456;BME280;15682;56.742;38.866;2023-02-08T02:07:54;101840.0;;;-5.9;86.7
28456;BME280;15682;56.742;38.866;2023-02-08T02:09:58;101840.0;;;-5.8;87.3
28456;BME280;15682;56.742;38.866;2023-02-08T02:11:53;101840.0;;;-5.8;87.5
28456;BME280;15682;56.742;38.866;2023-02-08T02:13:53;101840.0;;;-5.8;86.7
28456;BME280;15682;56.742;38.866;2023-02-08T02:15:53;101830.0;;;-5.8;86.7
28456;BME280;15682;56.742;38.866;2023-02-08T02:17:52;101830.0;;;-5.8;87.9
28456;BME280;15682;56.742;38.866;2023-02-08T02:19:58;101830.0;;;-5.8;87.6
28456;BME280;15682;56.742;38.866;2023-02-08T02:22:00;101830.0;;;-5.8;87.3
28456;BME280;15682;56.742;38.866;2023-02-08T02:24:11;101830.0;;;-5.8;87.0
28456;BME280;15682;56.742;38.866;2023-02-08T02:26:07;101830.0;;;-5.8;87.0
28456;BME280;15682;56.742;38.866;2023-02-08T02:28:03;101820.0;;;-5.8;87.0
28456;BME280;15682;56.742;38.866;2023-02-08T02:32:01;101820.0;;;-5.6;88.1
28456;BME280;15682;56.742;38.866;2023-02-08T02:33:57;101820.0;;;-5.6;87.3
28456;BME280;15682;56.742;38.866;2023-02-08T02:35:54;101820.0;;;-5.6;87.9
28456;BME280;15682;56.742;38.866;2023-02-08T02:37:56;101820.0;;;-5.5;87.9
28456;BME280;15682;56.742;38.866;2023-02-08T02:39:53;101820.0;;;-5.5;87.3
28456;BME280;15682;56.742;38.866;2023-02-08T02:41:55;101820.0;;;-5.5;87.4
28456;BME280;15682;56.742;38.866;2023-02-08T02:43:54;101820.0;;;-5.5;87.4
28456;BME280;15682;56.742;38.866;2023-02-08T02:45:53;101820.0;;;-5.5;87.4
28456;BME280;15682;56.742;38.866;2023-02-08T02:47:51;101820.0;;;-5.6;87.4
28456;BME280;15682;56.742;38.866;2023-02-08T02:49:50;101810.0;;;-5.6;87.4
28456;BME280;15682;56.742;38.866;2023-02-08T02:51:52;101810.0;;;-5.6;88.2
28456;BME280;15682;56.742;38.866;2023-02-08T02:53:53;101810.0;;;-5.6;87.4
28456;BME280;15682;56.742;38.866;2023-02-08T02:55:50;101810.0;;;-5.5;87.4
28456;BME280;15682;56.742;38.866;2023-02-08T02:57:48;101810.0;;;-5.6;87.9
28456;BME280;15682;56.742;38.866;2023-02-08T02:59:47;101800.0;;;-5.5;87.9
28456;BME280;15682;56.742;38.866;2023-02-08T03:01:47;101800.0;;;-5.7;87.6
28456;BME280;15682;56.742;38.866;2023-02-08T03:03:46;101800.0;;;-5.6;87.6
28456;BME280;15682;56.742;38.866;2023-02-08T03:05:46;101800.0;;;-5.4;87.6
28456;BME280;15682;56.742;38.866;2023-02-08T03:07:55;101800.0;;;-5.6;87.6
28456;BME280;15682;56.742;38.866;2023-02-08T03:09:51;101800.0;;;-5.6;87.6
28456;BME280;15682;56.742;38.866;2023-02-08T03:11:51;101800.0;;;-5.6;87.5
28456;BME280;15682;56.742;38.866;2023-02-08T03:14:00;101800.0;;;-5.6;87.5
28456;BME280;15682;56.742;38.866;2023-02-08T03:15:58;101800.0;;;-5.6;87.5
28456;BME280;15682;56.742;38.866;2023-02-08T03:17:55;101800.0;;;-5.6;87.5
28456;BME280;15682;56.742;38.866;2023-02-08T03:19:49;101800.0;;;-5.6;87.5
28456;BME280;15682;56.742;38.866;2023-02-08T03:21:51;101800.0;;;-5.5;88.0
28456;BME280;15682;56.742;38.866;2023-02-08T03:23:49;101800.0;;;-5.5;88.0
28456;BME280;15682;56.742;38.866;2023-02-08T03:25:49;101800.0;;;-5.5;88.0
28456;BME280;15682;56.742;38.866;2023-02-08T03:27:51;101800.0;;;-5.5;88.0
28456;BME280;15682;56.742;38.866;2023-02-08T03:29:51;101810.0;;;-5.4;88.4
28456;BME280;15682;56.742;38.866;2023-02-08T03:31:46;101810.0;;;-5.4;87.9
28456;BME280;15682;56.742;38.866;2023-02-08T03:33:48;101810.0;;;-5.5;87.9
28456;BME280;15682;56.742;38.866;2023-02-08T03:35:46;101810.0;;;-5.4;87.9
28456;BME280;15682;56.742;38.866;2023-02-08T03:37:46;101800.0;;;-5.4;87.9
28456;BME280;15682;56.742;38.866;2023-02-08T03:39:43;101800.0;;;-5.4;87.9
28456;BME280;15682;56.742;38.866;2023-02-08T03:41:45;101800.0;;;-5.3;88.6
28456;BME280;15682;56.742;38.866;2023-02-08T03:43:45;101800.0;;;-5.3;88.1
28456;BME280;15682;56.742;38.866;2023-02-08T03:45:45;101800.0;;;-5.3;88.1
28456;BME280;15682;56.742;38.866;2023-02-08T03:47:43;101790.0;;;-5.3;87.0
28456;BME280;15682;56.742;38.866;2023-02-08T03:49:43;101790.0;;;-5.3;87.8
28456;BME280;15682;56.742;38.866;2023-02-08T03:51:42;101790.0;;;-5.4;88.3
28456;BME280;15682;56.742;38.866;2023-02-08T03:53:41;101790.0;;;-5.4;88.3
28456;BME280;15682;56.742;38.866;2023-02-08T03:55:42;101790.0;;;-5.4;88.3
28456;BME280;15682;56.742;38.866;2023-02-08T03:57:45;101790.0;;;-5.4;88.3
28456;BME280;15682;56.742;38.866;2023-02-08T03:59:42;101790.0;;;-5.3;88.3
28456;BME280;15682;56.742;38.866;2023-02-08T04:01:43;101790.0;;;-5.4;88.4
28456;BME280;15682;56.742;38.866;2023-02-08T04:03:40;101790.0;;;-5.4;88.4
28456;BME280;15682;56.742;38.866;2023-02-08T04:05:40;101790.0;;;-5.4;88.4
28456;BME280;15682;56.742;38.866;2023-02-08T04:07:39;101790.0;;;-5.4;87.8
28456;BME280;15682;56.742;38.866;2023-02-08T04:09:39;101780.0;;;-5.4;88.3
28456;BME280;15682;56.742;38.866;2023-02-08T04:11:39;101780.0;;;-5.3;88.4
28456;BME280;15682;56.742;38.866;2023-02-08T04:13:38;101780.0;;;-5.3;88.3
28456;BME280;15682;56.742;38.866;2023-02-08T04:15:38;101780.0;;;-5.3;88.3
28456;BME280;15682;56.742;38.866;2023-02-08T04:17:38;101780.0;;;-5.3;88.3
28456;BME280;15682;56.742;38.866;2023-02-08T04:19:38;101780.0;;;-5.3;88.9
28456;BME280;15682;56.742;38.866;2023-02-08T04:21:37;101780.0;;;-5.3;88.4
28456;BME280;15682;56.742;38.866;2023-02-08T04:23:37;101780.0;;;-5.1;88.7
28456;BME280;15682;56.742;38.866;2023-02-08T04:25:37;101780.0;;;-5.1;88.1
28456;BME280;15682;56.742;38.866;2023-02-08T04:27:37;101780.0;;;-5.1;88.1
28456;BME280;15682;56.742;38.866;2023-02-08T04:29:37;101780.0;;;-5.1;88.1
28456;BME280;15682;56.742;38.866;2023-02-08T04:31:36;101780.0;;;-5.0;90.0
28456;BME280;15682;56.742;38.866;2023-02-08T04:33:36;101780.0;;;-5.2;87.8
28456;BME280;15682;56.742;38.866;2023-02-08T04:35:36;101780.0;;;-5.1;88.4
28456;BME280;15682;56.742;38.866;2023-02-08T04:37:36;101780.0;;;-5.1;88.4
28456;BME280;15682;56.742;38.866;2023-02-08T04:39:35;101780.0;;;-5.1;88.4
28456;BME280;15682;56.742;38.866;2023-02-08T04:41:35;101780.0;;;-5.2;88.1
28456;BME280;15682;56.742;38.866;2023-02-08T04:43:35;101780.0;;;-5.2;88.1
28456;BME280;15682;56.742;38.866;2023-02-08T04:45:35;101770.0;;;-5.1;88.1
28456;BME280;15682;56.742;38.866;2023-02-08T04:47:35;101770.0;;;-5.2;88.1
28456;BME280;15682;56.742;38.866;2023-02-08T04:49:34;101770.0;;;-5.1;89.0
28456;BME280;15682;56.742;38.866;2023-02-08T04:51:34;101770.0;;;-5.1;88.7
28456;BME280;15682;56.742;38.866;2023-02-08T04:53:34;101770.0;;;-5.1;88.6
28456;BME280;15682;56.742;38.866;2023-02-08T04:55:34;101770.0;;;-5.1;89.3
28456;BME280;15682;56.742;38.866;2023-02-08T04:57:34;101770.0;;;-5.2;88.7
28456;BME280;15682;56.742;38.866;2023-02-08T04:59:33;101770.0;;;-5.1;88.7
28456;BME280;15682;56.742;38.866;2023-02-08T05:01:33;101770.0;;;-5.0;88.7
28456;BME280;15682;56.742;38.866;2023-02-08T05:03:33;101760.0;;;-5.1;88.7
28456;BME280;15682;56.742;38.866;2023-02-08T05:05:33;101760.0;;;-5.1;88.7
28456;BME280;15682;56.742;38.866;2023-02-08T05:07:32;101760.0;;;-5.0;88.7
28456;BME280;15682;56.742;38.866;2023-02-08T05:09:32;101760.0;;;-5.0;88.2
28456;BME280;15682;56.742;38.866;2023-02-08T05:11:32;101760.0;;;-5.1;88.8
28456;BME280;15682;56.742;38.866;2023-02-08T05:13:32;101760.0;;;-5.1;88.3
28456;BME280;15682;56.742;38.866;2023-02-08T05:15:31;101760.0;;;-4.9;88.8
28456;BME280;15682;56.742;38.866;2023-02-08T05:17:31;101760.0;;;-4.9;88.6
28456;BME280;15682;56.742;38.866;2023-02-08T05:19:31;101760.0;;;-4.9;88.0
28456;BME280;15682;56.742;38.866;2023-02-08T05:21:31;101750.0;;;-5.0;88.6
28456;BME280;15682;56.742;38.866;2023-02-08T05:23:31;101750.0;;;-5.0;88.6
28456;BME280;15682;56.742;38.866;2023-02-08T05:25:30;101750.0;;;-4.9;88.6
28456;BME280;15682;56.742;38.866;2023-02-08T05:27:30;101740.0;;;-4.9;88.6
28456;BME280;15682;56.742;38.866;2023-02-08T05:29:30;101740.0;;;-4.8;88.6
28456;BME280;15682;56.742;38.866;2023-02-08T05:31:30;101730.0;;;-4.9;88.7
28456;BME280;15682;56.742;38.866;2023-02-08T05:33:30;101730.0;;;-4.9;88.7
28456;BME280;15682;56.742;38.866;2023-02-08T05:35:29;101720.0;;;-4.9;87.9
28456;BME280;15682;56.742;38.866;2023-02-08T05:37:29;101720.0;;;-4.9;88.5
28456;BME280;15682;56.742;38.866;2023-02-08T05:39:29;101720.0;;;-4.8;88.5
28456;BME280;15682;56.742;38.866;2023-02-08T05:41:29;101720.0;;;-4.8;88.1
28456;BME280;15682;56.742;38.866;2023-02-08T05:43:29;101720.0;;;-4.8;88.1
28456;BME280;15682;56.742;38.866;2023-02-08T05:45:28;101720.0;;;-4.8;88.1
28456;BME280;15682;56.742;38.866;2023-02-08T05:47:28;101720.0;;;-4.8;88.1
28456;BME280;15682;56.742;38.866;2023-02-08T05:49:28;101720.0;;;-4.8;88.1
28456;BME280;15682;56.742;38.866;2023-02-08T05:51:28;101720.0;;;-4.6;88.0
28456;BME280;15682;56.742;38.866;2023-02-08T05:53:28;101710.0;;;-4.6;88.0
28456;BME280;15682;56.742;38.866;2023-02-08T05:55:27;101710.0;;;-4.6;88.0
28456;BME280;15682;56.742;38.866;2023-02-08T05:57:27;101700.0;;;-4.5;88.0
28456;BME280;15682;56.742;38.866;2023-02-08T05:59:27;101700.0;;;-4.5;87.6
28456;BME280;15682;56.742;38.866;2023-02-08T06:01:27;101700.0;;;-4.5;87.9
28456;BME280;15682;56.742;38.866;2023-02-08T06:03:27;101710.0;;;-4.5;87.9
28456;BME280;15682;56.742;38.866;2023-02-08T06:05:26;101710.0;;;-4.5;87.9
28456;BME280;15682;56.742;38.866;2023-02-08T06:07:26;101700.0;;;-4.5;87.9
28456;BME280;15682;56.742;38.866;2023-02-08T06:09:27;101700.0;;;-4.4;88.3
28456;BME280;15682;56.742;38.866;2023-02-08T06:11:26;101700.0;;;-4.5;87.8
28456;BME280;15682;56.742;38.866;2023-02-08T06:13:25;101700.0;;;-4.5;87.8
28456;BME280;15682;56.742;38.866;2023-02-08T06:15:25;101700.0;;;-4.5;87.8
28456;BME280;15682;56.742;38.866;2023-02-08T06:17:25;101700.0;;;-4.5;88.4
28456;BME280;15682;56.742;38.866;2023-02-08T06:19:25;101700.0;;;-4.5;87.4
28456;BME280;15682;56.742;38.866;2023-02-08T06:21:25;101690.0;;;-4.5;87.9
28456;BME280;15682;56.742;38.866;2023-02-08T06:23:24;101690.0;;;-4.4;87.9
28456;BME280;15682;56.742;38.866;2023-02-08T06:25:24;101690.0;;;-4.4;87.9
28456;BME280;15682;56.742;38.866;2023-02-08T06:27:24;101690.0;;;-4.4;87.9
28456;BME280;15682;56.742;38.866;2023-02-08T06:29:24;101690.0;;;-4.4;87.9
28456;BME280;15682;56.742;38.866;2023-02-08T06:31:24;101690.0;;;-4.4;88.3
28456;BME280;15682;56.742;38.866;2023-02-08T06:33:23;101690.0;;;-4.4;87.6
28456;BME280;15682;56.742;38.866;2023-02-08T06:35:23;101690.0;;;-4.4;88.5
28456;BME280;15682;56.742;38.866;2023-02-08T06:37:23;101690.0;;;-4.5;87.8
28456;BME280;15682;56.742;38.866;2023-02-08T06:39:23;101690.0;;;-4.5;87.8
28456;BME280;15682;56.742;38.866;2023-02-08T06:41:23;101690.0;;;-4.4;88.3
28456;BME280;15682;56.742;38.866;2023-02-08T06:43:22;101690.0;;;-4.3;88.3
28456;BME280;15682;56.742;38.866;2023-02-08T06:45:22;101690.0;;;-4.3;87.6
28456;BME280;15682;56.742;38.866;2023-02-08T06:47:23;101690.0;;;-4.2;87.6
28456;BME280;15682;56.742;38.866;2023-02-08T06:49:22;101690.0;;;-4.2;87.6
28456;BME280;15682;56.742;38.866;2023-02-08T06:51:22;101700.0;;;-4.1;87.5
28456;BME280;15682;56.742;38.866;2023-02-08T06:53:21;101700.0;;;-4.1;87.5
28456;BME280;15682;56.742;38.866;2023-02-08T06:55:21;101700.0;;;-4.1;87.5
28456;BME280;15682;56.742;38.866;2023-02-08T06:57:21;101700.0;;;-4.1;87.1
28456;BME280;15682;56.742;38.866;2023-02-08T06:59:21;101700.0;;;-4.1;87.1
28456;BME280;15682;56.742;38.866;2023-02-08T07:01:21;101700.0;;;-4.0;87.5
28456;BME280;15682;56.742;38.866;2023-02-08T07:03:20;101700.0;;;-3.9;86.6
28456;BME280;15682;56.742;38.866;2023-02-08T07:05:20;101700.0;;;-3.9;87.2
28456;BME280;15682;56.742;38.866;2023-02-08T07:07:20;101700.0;;;-3.9;86.3
28456;BME280;15682;56.742;38.866;2023-02-08T07:09:20;101700.0;;;-3.9;86.8
28456;BME280;15682;56.742;38.866;2023-02-08T07:11:20;101700.0;;;-3.8;86.6
28456;BME280;15682;56.742;38.866;2023-02-08T07:13:19;101700.0;;;-3.8;86.6
28456;BME280;15682;56.742;38.866;2023-02-08T07:15:19;101700.0;;;-3.8;87.3
28456;BME280;15682;56.742;38.866;2023-02-08T07:17:20;101700.0;;;-3.8;86.4
28456;BME280;15682;56.742;38.866;2023-02-08T07:19:19;101700.0;;;-3.8;86.4
28456;BME280;15682;56.742;38.866;2023-02-08T07:21:19;101700.0;;;-3.9;86.8
28456;BME280;15682;56.742;38.866;2023-02-08T07:23:19;101690.0;;;-3.9;86.8
28456;BME280;15682;56.742;38.866;2023-02-08T07:25:18;101690.0;;;-3.9;86.6
28456;BME280;15682;56.742;38.866;2023-02-08T07:27:18;101690.0;;;-3.9;86.6
28456;BME280;15682;56.742;38.866;2023-02-08T07:29:18;101690.0;;;-3.7;86.6
28456;BME280;15682;56.742;38.866;2023-02-08T07:31:18;101690.0;;;-3.7;85.7
28456;BME280;15682;56.742;38.866;2023-02-08T07:33:18;101690.0;;;-3.7;86.2
28456;BME280;15682;56.742;38.866;2023-02-08T07:35:18;101690.0;;;-3.7;85.7
28456;BME280;15682;56.742;38.866;2023-02-08T07:37:17;101690.0;;;-3.7;85.4
28456;BME280;15682;56.742;38.866;2023-02-08T07:39:17;101690.0;;;-3.7;86.1
28456;BME280;15682;56.742;38.866;2023-02-08T07:41:17;101690.0;;;-3.5;85.6
28456;BME280;15682;56.742;38.866;2023-02-08T07:43:17;101690.0;;;-3.5;84.7
28456;BME280;15682;56.742;38.866;2023-02-08T07:45:17;101690.0;;;-3.5;85.7
28456;BME280;15682;56.742;38.866;2023-02-08T07:47:16;101680.0;;;-3.5;85.7
28456;BME280;15682;56.742;38.866;2023-02-08T07:49:16;101680.0;;;-3.5;85.6
28456;BME280;15682;56.742;38.866;2023-02-08T07:51:16;101680.0;;;-3.6;85.4
28456;BME280;15682;56.742;38.866;2023-02-08T07:53:16;101680.0;;;-3.6;85.7
28456;BME280;15682;56.742;38.866;2023-02-08T07:55:16;101680.0;;;-3.4;85.5
28456;BME280;15682;56.742;38.866;2023-02-08T07:57:15;101680.0;;;-3.6;85.6
28456;BME280;15682;56.742;38.866;2023-02-08T07:59:15;101680.0;;;-3.4;84.8
28456;BME280;15682;56.742;38.866;2023-02-08T08:01:15;101680.0;;;-3.3;85.1
28456;BME280;15682;56.742;38.866;2023-02-08T08:03:15;101680.0;;;-3.3;85.5
28456;BME280;15682;56.742;38.866;2023-02-08T08:05:15;101680.0;;;-3.3;84.8
28456;BME280;15682;56.742;38.866;2023-02-08T08:07:15;101670.0;;;-3.3;84.8
28456;BME280;15682;56.742;38.866;2023-02-08T08:09:14;101670.0;;;-3.5;84.8
28456;BME280;15682;56.742;38.866;2023-02-08T08:11:15;101670.0;;;-3.4;84.8
28456;BME280;15682;56.742;38.866;2023-02-08T08:13:14;101670.0;;;-3.4;84.7
28456;BME280;15682;56.742;38.866;2023-02-08T08:15:14;101660.0;;;-3.1;85.3
28456;BME280;15682;56.742;38.866;2023-02-08T08:17:14;101660.0;;;-3.1;83.6
28456;BME280;15682;56.742;38.866;2023-02-08T08:19:14;101660.0;;;-3.1;84.3
28456;BME280;15682;56.742;38.866;2023-02-08T08:21:14;101660.0;;;-3.1;84.0
28456;BME280;15682;56.742;38.866;2023-02-08T08:23:13;101660.0;;;-2.9;83.4
28456;BME280;15682;56.742;38.866;2023-02-08T08:25:13;101660.0;;;-3.1;83.4
28456;BME280;15682;56.742;38.866;2023-02-08T08:27:13;101660.0;;;-3.1;83.9
28456;BME280;15682;56.742;38.866;2023-02-08T08:29:13;101660.0;;;-3.1;84.8
28456;BME280;15682;56.742;38.866;2023-02-08T08:31:14;101640.0;;;-3.0;83.5
28456;BME280;15682;56.742;38.866;2023-02-08T08:33:13;101640.0;;;-3.1;83.5
28456;BME280;15682;56.742;38.866;2023-02-08T08:35:13;101630.0;;;-3.1;84.3
28456;BME280;15682;56.742;38.866;2023-02-08T08:37:12;101630.0;;;-3.1;84.3
28456;BME280;15682;56.742;38.866;2023-02-08T08:39:12;101630.0;;;-2.9;83.5
28456;BME280;15682;56.742;38.866;2023-02-08T08:41:14;101620.0;;;-2.9;83.5
28456;BME280;15682;56.742;38.866;2023-02-08T08:43:12;101620.0;;;-2.9;83.5
28456;BME280;15682;56.742;38.866;2023-02-08T08:45:12;101620.0;;;-2.9;83.5
28456;BME280;15682;56.742;38.866;2023-02-08T08:47:12;101620.0;;;-2.6;83.0
28456;BME280;15682;56.742;38.866;2023-02-08T08:49:11;101620.0;;;-2.4;81.9
28456;BME280;15682;56.742;38.866;2023-02-08T08:51:12;101620.0;;;-2.2;81.9
28456;BME280;15682;56.742;38.866;2023-02-08T08:53:11;101620.0;;;-2.4;82.3
28456;BME280;15682;56.742;38.866;2023-02-08T08:55:11;101620.0;;;-2.4;82.3
28456;BME280;15682;56.742;38.866;2023-02-08T08:57:11;101620.0;;;-2.4;82.3
28456;BME280;15682;56.742;38.866;2023-02-08T08:59:11;101620.0;;;-2.2;82.5
28456;BME280;15682;56.742;38.866;2023-02-08T09:01:10;101620.0;;;-2.2;81.8
28456;BME280;15682;56.742;38.866;2023-02-08T09:03:10;101620.0;;;-2.4;81.2
28456;BME280;15682;56.742;38.866;2023-02-08T09:05:10;101620.0;;;-2.3;82.0
28456;BME280;15682;56.742;38.866;2023-02-08T09:07:10;101620.0;;;-2.3;81.1
28456;BME280;15682;56.742;38.866;2023-02-08T09:09:10;101620.0;;;-2.0;81.6
28456;BME280;15682;56.742;38.866;2023-02-08T09:11:12;101620.0;;;-2.3;81.6
28456;BME280;15682;56.742;38.866;2023-02-08T09:13:10;101620.0;;;-2.3;82.8
28456;BME280;15682;56.742;38.866;2023-02-08T09:15:09;101620.0;;;-2.3;82.8
28456;BME280;15682;56.742;38.866;2023-02-08T09:17:10;101620.0;;;-2.1;81.5
28456;BME280;15682;56.742;38.866;2023-02-08T09:19:09;101620.0;;;-2.2;81.5
28456;BME280;15682;56.742;38.866;2023-02-08T09:21:11;101620.0;;;-2.3;82.5
28456;BME280;15682;56.742;38.866;2023-02-08T09:23:09;101610.0;;;-2.1;81.4
28456;BME280;15682;56.742;38.866;2023-02-08T09:25:09;101610.0;;;-2.0;81.4
28456;BME280;15682;56.742;38.866;2023-02-08T09:27:09;101610.0;;;-2.0;81.4
28456;BME280;15682;56.742;38.866;2023-02-08T09:29:08;101610.0;;;-1.9;81.4
28456;BME280;15682;56.742;38.866;2023-02-08T09:31:09;101610.0;;;-1.8;80.7
28456;BME280;15682;56.742;38.866;2023-02-08T09:33:08;101610.0;;;-2.1;81.4
28456;BME280;15682;56.742;38.866;2023-02-08T09:35:08;101610.0;;;-2.1;81.4
28456;BME280;15682;56.742;38.866;2023-02-08T09:37:08;101610.0;;;-2.1;80.8
28456;BME280;15682;56.742;38.866;2023-02-08T09:39:10;101610.0;;;-2.1;81.4
28456;BME280;15682;56.742;38.866;2023-02-08T09:41:20;101610.0;;;-1.9;80.7
28456;BME280;15682;56.742;38.866;2023-02-08T09:43:13;101610.0;;;-1.8;80.7
28456;BME280;15682;56.742;38.866;2023-02-08T09:45:23;101610.0;;;-1.8;81.5
28456;BME280;15682;56.742;38.866;2023-02-08T09:47:13;101610.0;;;-1.8;81.5
28456;BME280;15682;56.742;38.866;2023-02-08T09:49:13;101610.0;;;-1.8;80.5
28456;BME280;15682;56.742;38.866;2023-02-08T09:51:12;101610.0;;;-2.1;81.1
28456;BME280;15682;56.742;38.866;2023-02-08T09:53:12;101610.0;;;-2.1;81.7
28456;BME280;15682;56.742;38.866;2023-02-08T09:55:20;101610.0;;;-2.1;81.7
28456;BME280;15682;56.742;38.866;2023-02-08T09:57:12;101610.0;;;-2.1;81.7
28456;BME280;15682;56.742;38.866;2023-02-08T09:59:12;101610.0;;;-2.1;82.5
28456;BME280;15682;56.742;38.866;2023-02-08T10:01:15;101610.0;;;-2.1;82.3
28456;BME280;15682;56.742;38.866;2023-02-08T10:03:19;101610.0;;;-2.1;81.9
28456;BME280;15682;56.742;38.866;2023-02-08T10:05:10;101610.0;;;-1.9;81.9
28456;BME280;15682;56.742;38.866;2023-02-08T10:07:08;101610.0;;;-2.1;81.9
28456;BME280;15682;56.742;38.866;2023-02-08T10:09:11;101610.0;;;-2.2;81.9
28456;BME280;15682;56.742;38.866;2023-02-08T10:11:24;101610.0;;;-2.5;82.9
28456;BME280;15682;56.742;38.866;2023-02-08T10:13:14;101610.0;;;-2.3;82.7
28456;BME280;15682;56.742;38.866;2023-02-08T10:15:15;101600.0;;;-2.2;82.7
28456;BME280;15682;56.742;38.866;2023-02-08T10:17:28;101600.0;;;-2.2;82.2
28456;BME280;15682;56.742;38.866;2023-02-08T10:19:13;101590.0;;;-2.0;82.2
28456;BME280;15682;56.742;38.866;2023-02-08T10:21:17;101590.0;;;-2.1;81.5
28456;BME280;15682;56.742;38.866;2023-02-08T10:23:19;101590.0;;;-2.0;81.8
28456;BME280;15682;56.742;38.866;2023-02-08T10:25:19;101590.0;;;-1.8;81.8
28456;BME280;15682;56.742;38.866;2023-02-08T10:27:11;101590.0;;;-1.8;82.1
28456;BME280;15682;56.742;38.866;2023-02-08T10:29:28;101590.0;;;-1.8;81.1
28456;BME280;15682;56.742;38.866;2023-02-08T10:31:13;101590.0;;;-1.7;81.1
28456;BME280;15682;56.742;38.866;2023-02-08T10:33:08;101590.0;;;-2.0;81.2
28456;BME280;15682;56.742;38.866;2023-02-08T10:35:08;101590.0;;;-2.0;81.7
28456;BME280;15682;56.742;38.866;2023-02-08T10:37:12;101590.0;;;-1.8;81.1
28456;BME280;15682;56.742;38.866;2023-02-08T10:39:14;101590.0;;;-1.8;81.1
28456;BME280;15682;56.742;38.866;2023-02-08T10:41:05;101590.0;;;-1.8;81.1
28456;BME280;15682;56.742;38.866;2023-02-08T10:43:18;101590.0;;;-1.7;81.6